sensor_id;sensor_type;location;lat;lon;timestamp;temperature;humidity
73568;SHT30;61847;54.994;73.310;2022-10-16T00:01:28;10.64;71.36
73568;SHT30;61847;54.994;73.310;2022-10-16T00:03:56;10.61;71.82
73568;SHT30;61847;54.994;73.310;2022-10-16T00:06:23;10.65;71.26
73568;SHT30;61847;54.994;73.310;2022-10-16T00:08:51;10.71;70.08
73568;SHT30;61847;54.994;73.310;2022-10-16T00:11:21;10.78;69.12
73568;SHT30;61847;54.994;73.310;2022-10-16T00:13:54;10.75;68.78
73568;SHT30;61847;54.994;73.310;2022-10-16T00:16:20;10.78;68.90
73568;SHT30;61847;54.994;73.310;2022-10-16T00:18:47;10.71;69.51
73568;SHT30;61847;54.994;73.310;2022-10-16T00:21:16;10.58;70.01
73568;SHT30;61847;54.994;73.310;2022-10-16T00:23:43;10.54;70.32
73568;SHT30;61847;54.994;73.310;2022-10-16T00:26:13;10.53;69.71
73568;SHT30;61847;54.994;73.310;2022-10-16T00:28:47;10.51;70.03
73568;SHT30;61847;54.994;73.310;2022-10-16T00:31:14;10.48;69.94
73568;SHT30;61847;54.994;73.310;2022-10-16T00:33:42;10.48;69.72
73568;SHT30;61847;54.994;73.310;2022-10-16T00:36:11;10.45;70.47
73568;SHT30;61847;54.994;73.310;2022-10-16T00:38:38;10.41;70.98
73568;SHT30;61847;54.994;73.310;2022-10-16T00:41:05;10.29;71.33
73568;SHT30;61847;54.994;73.310;2022-10-16T00:43:52;10.23;71.43
73568;SHT30;61847;54.994;73.310;2022-10-16T00:46:37;10.13;72.56
73568;SHT30;61847;54.994;73.310;2022-10-16T00:49:08;10.05;72.82
73568;SHT30;61847;54.994;73.310;2022-10-16T00:51:46;10.02;72.78
73568;SHT30;61847;54.994;73.310;2022-10-16T00:54:19;9.93;72.43
73568;SHT30;61847;54.994;73.310;2022-10-16T00:56:47;9.92;72.18
73568;SHT30;61847;54.994;73.310;2022-10-16T00:59:20;9.85;72.26
73568;SHT30;61847;54.994;73.310;2022-10-16T01:01:48;9.85;72.61
73568;SHT30;61847;54.994;73.310;2022-10-16T01:04:15;9.85;72.51
73568;SHT30;61847;54.994;73.310;2022-10-16T01:12:26;9.83;71.83
73568;SHT30;61847;54.994;73.310;2022-10-16T01:15:05;9.86;71.85
73568;SHT30;61847;54.994;73.310;2022-10-16T01:25:46;9.86;71.32
73568;SHT30;61847;54.994;73.310;2022-10-16T01:28:19;9.86;71.12
73568;SHT30;61847;54.994;73.310;2022-10-16T01:30:49;9.89;70.91
73568;SHT30;61847;54.994;73.310;2022-10-16T01:33:21;9.92;70.50
73568;SHT30;61847;54.994;73.310;2022-10-16T01:35:58;9.96;70.44
73568;SHT30;61847;54.994;73.310;2022-10-16T01:38:38;9.96;69.89
73568;SHT30;61847;54.994;73.310;2022-10-16T01:41:33;9.95;69.24
73568;SHT30;61847;54.994;73.310;2022-10-16T01:44:19;9.99;68.84
73568;SHT30;61847;54.994;73.310;2022-10-16T01:46:50;9.99;68.88
73568;SHT30;61847;54.994;73.310;2022-10-16T01:49:17;10.03;68.47
73568;SHT30;61847;54.994;73.310;2022-10-16T01:51:46;10.02;68.85
73568;SHT30;61847;54.994;73.310;2022-10-16T01:54:14;10.05;68.48
73568;SHT30;61847;54.994;73.310;2022-10-16T01:56:42;10.06;68.34
73568;SHT30;61847;54.994;73.310;2022-10-16T01:59:17;10.09;67.81
73568;SHT30;61847;54.994;73.310;2022-10-16T02:01:48;10.07;67.38
73568;SHT30;61847;54.994;73.310;2022-10-16T02:04:29;10.06;66.98
73568;SHT30;61847;54.994;73.310;2022-10-16T02:06:57;10.09;67.06
73568;SHT30;61847;54.994;73.310;2022-10-16T02:09:34;10.07;66.95
73568;SHT30;61847;54.994;73.310;2022-10-16T02:12:13;10.07;66.87
73568;SHT30;61847;54.994;73.310;2022-10-16T02:14:41;10.06;67.19
73568;SHT30;61847;54.994;73.310;2022-10-16T02:17:17;10.06;66.99
73568;SHT30;61847;54.994;73.310;2022-10-16T02:19:45;10.07;66.99
73568;SHT30;61847;54.994;73.310;2022-10-16T02:22:18;10.09;67.88
73568;SHT30;61847;54.994;73.310;2022-10-16T02:25:04;10.03;67.72
73568;SHT30;61847;54.994;73.310;2022-10-16T02:28:16;10.05;67.41
73568;SHT30;61847;54.994;73.310;2022-10-16T02:30:46;10.07;67.44
73568;SHT30;61847;54.994;73.310;2022-10-16T02:33:17;10.12;67.96
73568;SHT30;61847;54.994;73.310;2022-10-16T02:35:46;10.10;67.23
73568;SHT30;61847;54.994;73.310;2022-10-16T02:38:25;10.16;67.21
73568;SHT30;61847;54.994;73.310;2022-10-16T02:40:52;10.16;66.83
73568;SHT30;61847;54.994;73.310;2022-10-16T02:43:19;10.16;66.48
73568;SHT30;61847;54.994;73.310;2022-10-16T02:45:45;10.18;66.18
73568;SHT30;61847;54.994;73.310;2022-10-16T02:48:11;10.18;66.45
73568;SHT30;61847;54.994;73.310;2022-10-16T02:50:37;10.20;65.50
73568;SHT30;61847;54.994;73.310;2022-10-16T02:53:04;10.23;65.57
73568;SHT30;61847;54.994;73.310;2022-10-16T02:55:30;10.24;64.85
73568;SHT30;61847;54.994;73.310;2022-10-16T02:57:56;10.30;64.58
73568;SHT30;61847;54.994;73.310;2022-10-16T03:00:22;10.33;64.71
73568;SHT30;61847;54.994;73.310;2022-10-16T03:02:49;10.33;64.53
73568;SHT30;61847;54.994;73.310;2022-10-16T03:05:15;10.36;64.43
73568;SHT30;61847;54.994;73.310;2022-10-16T03:07:42;10.40;63.63
73568;SHT30;61847;54.994;73.310;2022-10-16T03:10:08;10.41;63.66
73568;SHT30;61847;54.994;73.310;2022-10-16T03:12:44;10.41;63.98
73568;SHT30;61847;54.994;73.310;2022-10-16T03:15:11;10.41;63.91
73568;SHT30;61847;54.994;73.310;2022-10-16T03:17:37;10.44;63.52
73568;SHT30;61847;54.994;73.310;2022-10-16T03:20:03;10.50;63.60
73568;SHT30;61847;54.994;73.310;2022-10-16T03:22:30;10.54;63.81
73568;SHT30;61847;54.994;73.310;2022-10-16T03:25:01;10.50;65.08
73568;SHT30;61847;54.994;73.310;2022-10-16T03:27:27;10.41;65.99
73568;SHT30;61847;54.994;73.310;2022-10-16T03:29:54;10.32;65.91
73568;SHT30;61847;54.994;73.310;2022-10-16T03:32:20;10.26;66.92
73568;SHT30;61847;54.994;73.310;2022-10-16T03:34:47;10.20;67.43
73568;SHT30;61847;54.994;73.310;2022-10-16T03:37:24;10.21;67.74
73568;SHT30;61847;54.994;73.310;2022-10-16T03:39:50;10.24;68.63
73568;SHT30;61847;54.994;73.310;2022-10-16T03:42:16;10.24;68.00
73568;SHT30;61847;54.994;73.310;2022-10-16T03:44:42;10.32;68.07
73568;SHT30;61847;54.994;73.310;2022-10-16T03:47:08;10.36;66.68
73568;SHT30;61847;54.994;73.310;2022-10-16T03:49:35;10.43;67.18
73568;SHT30;61847;54.994;73.310;2022-10-16T03:52:01;10.54;66.87
73568;SHT30;61847;54.994;73.310;2022-10-16T03:54:27;10.61;66.87
73568;SHT30;61847;54.994;73.310;2022-10-16T03:57:04;10.64;67.44
73568;SHT30;61847;54.994;73.310;2022-10-16T03:59:30;10.71;66.68
73568;SHT30;61847;54.994;73.310;2022-10-16T04:01:56;10.76;65.53
73568;SHT30;61847;54.994;73.310;2022-10-16T04:04:23;10.84;65.17
73568;SHT30;61847;54.994;73.310;2022-10-16T04:07:00;10.92;64.15
73568;SHT30;61847;54.994;73.310;2022-10-16T04:09:26;11.05;63.15
73568;SHT30;61847;54.994;73.310;2022-10-16T04:11:53;11.08;62.89
73568;SHT30;61847;54.994;73.310;2022-10-16T04:14:19;11.13;62.05
73568;SHT30;61847;54.994;73.310;2022-10-16T04:16:45;11.15;62.25
73568;SHT30;61847;54.994;73.310;2022-10-16T04:19:21;11.22;61.67
73568;SHT30;61847;54.994;73.310;2022-10-16T04:21:47;11.22;61.39
73568;SHT30;61847;54.994;73.310;2022-10-16T04:24:13;11.32;61.15
73568;SHT30;61847;54.994;73.310;2022-10-16T04:26:49;11.34;61.86
73568;SHT30;61847;54.994;73.310;2022-10-16T04:29:15;11.44;61.89
73568;SHT30;61847;54.994;73.310;2022-10-16T04:31:41;11.51;61.62
73568;SHT30;61847;54.994;73.310;2022-10-16T04:34:08;11.54;62.33
73568;SHT30;61847;54.994;73.310;2022-10-16T04:36:34;11.61;61.25
73568;SHT30;61847;54.994;73.310;2022-10-16T04:39:00;11.68;61.09
73568;SHT30;61847;54.994;73.310;2022-10-16T04:41:26;11.77;60.30
73568;SHT30;61847;54.994;73.310;2022-10-16T04:43:52;11.85;60.49
73568;SHT30;61847;54.994;73.310;2022-10-16T04:46:19;11.92;60.64
73568;SHT30;61847;54.994;73.310;2022-10-16T04:48:46;11.98;60.25
73568;SHT30;61847;54.994;73.310;2022-10-16T04:51:12;12.02;59.64
73568;SHT30;61847;54.994;73.310;2022-10-16T04:53:38;12.12;60.04
73568;SHT30;61847;54.994;73.310;2022-10-16T04:56:05;12.16;59.56
73568;SHT30;61847;54.994;73.310;2022-10-16T04:58:31;12.24;59.33
73568;SHT30;61847;54.994;73.310;2022-10-16T05:00:57;12.28;59.55
73568;SHT30;61847;54.994;73.310;2022-10-16T05:03:24;12.40;59.05
73568;SHT30;61847;54.994;73.310;2022-10-16T05:05:50;12.54;58.58
73568;SHT30;61847;54.994;73.310;2022-10-16T05:08:16;12.66;58.64
73568;SHT30;61847;54.994;73.310;2022-10-16T05:10:43;12.72;58.33
73568;SHT30;61847;54.994;73.310;2022-10-16T05:13:10;12.80;58.41
73568;SHT30;61847;54.994;73.310;2022-10-16T05:15:37;12.81;58.97
73568;SHT30;61847;54.994;73.310;2022-10-16T05:18:03;12.88;58.69
73568;SHT30;61847;54.994;73.310;2022-10-16T05:20:29;12.97;57.86
73568;SHT30;61847;54.994;73.310;2022-10-16T05:23:08;12.98;57.97
73568;SHT30;61847;54.994;73.310;2022-10-16T05:25:36;13.04;57.72
73568;SHT30;61847;54.994;73.310;2022-10-16T05:28:08;13.05;57.41
73568;SHT30;61847;54.994;73.310;2022-10-16T05:30:37;13.05;55.65
73568;SHT30;61847;54.994;73.310;2022-10-16T05:33:03;13.08;55.60
73568;SHT30;61847;54.994;73.310;2022-10-16T05:35:30;13.08;55.12
73568;SHT30;61847;54.994;73.310;2022-10-16T05:37:56;13.11;55.11
73568;SHT30;61847;54.994;73.310;2022-10-16T05:40:32;13.14;55.65
73568;SHT30;61847;54.994;73.310;2022-10-16T05:43:09;13.11;56.29
73568;SHT30;61847;54.994;73.310;2022-10-16T05:45:56;13.14;55.84
73568;SHT30;61847;54.994;73.310;2022-10-16T05:48:23;13.15;55.42
73568;SHT30;61847;54.994;73.310;2022-10-16T05:51:02;13.16;56.22
73568;SHT30;61847;54.994;73.310;2022-10-16T05:53:30;13.16;55.67
73568;SHT30;61847;54.994;73.310;2022-10-16T05:55:57;13.18;55.31
73568;SHT30;61847;54.994;73.310;2022-10-16T05:58:36;13.19;54.76
73568;SHT30;61847;54.994;73.310;2022-10-16T06:01:04;13.21;54.33
73568;SHT30;61847;54.994;73.310;2022-10-16T06:03:34;13.22;55.07
73568;SHT30;61847;54.994;73.310;2022-10-16T06:06:19;13.22;54.52
73568;SHT30;61847;54.994;73.310;2022-10-16T06:08:47;13.22;54.55
73568;SHT30;61847;54.994;73.310;2022-10-16T06:11:19;13.25;54.70
73568;SHT30;61847;54.994;73.310;2022-10-16T06:13:52;13.25;54.38
73568;SHT30;61847;54.994;73.310;2022-10-16T06:16:18;13.15;54.18
73568;SHT30;61847;54.994;73.310;2022-10-16T06:18:45;13.14;54.22
73568;SHT30;61847;54.994;73.310;2022-10-16T06:21:24;13.16;54.18
73568;SHT30;61847;54.994;73.310;2022-10-16T06:23:55;13.22;54.47
73568;SHT30;61847;54.994;73.310;2022-10-16T06:26:24;13.23;54.34
73568;SHT30;61847;54.994;73.310;2022-10-16T06:29:00;13.22;54.73
73568;SHT30;61847;54.994;73.310;2022-10-16T06:31:27;13.22;55.03
73568;SHT30;61847;54.994;73.310;2022-10-16T06:33:57;13.22;55.37
73568;SHT30;61847;54.994;73.310;2022-10-16T06:36:24;13.21;55.78
73568;SHT30;61847;54.994;73.310;2022-10-16T06:38:51;13.28;56.09
73568;SHT30;61847;54.994;73.310;2022-10-16T06:41:20;13.36;56.17
73568;SHT30;61847;54.994;73.310;2022-10-16T06:43:47;13.42;56.08
73568;SHT30;61847;54.994;73.310;2022-10-16T06:46:15;13.38;56.74
73568;SHT30;61847;54.994;73.310;2022-10-16T06:48:42;13.45;56.92
73568;SHT30;61847;54.994;73.310;2022-10-16T06:51:12;13.42;57.31
73568;SHT30;61847;54.994;73.310;2022-10-16T06:53:44;13.41;57.02
73568;SHT30;61847;54.994;73.310;2022-10-16T06:56:24;13.48;57.01
73568;SHT30;61847;54.994;73.310;2022-10-16T06:58:53;13.58;57.62
73568;SHT30;61847;54.994;73.310;2022-10-16T07:01:24;13.59;57.18
73568;SHT30;61847;54.994;73.310;2022-10-16T07:03:51;13.56;57.09
73568;SHT30;61847;54.994;73.310;2022-10-16T07:06:24;13.58;57.96
73568;SHT30;61847;54.994;73.310;2022-10-16T07:08:52;13.53;57.69
73568;SHT30;61847;54.994;73.310;2022-10-16T07:11:22;13.53;58.25
73568;SHT30;61847;54.994;73.310;2022-10-16T07:13:50;13.58;58.03
73568;SHT30;61847;54.994;73.310;2022-10-16T07:16:19;13.63;57.94
73568;SHT30;61847;54.994;73.310;2022-10-16T07:18:46;13.67;57.78
73568;SHT30;61847;54.994;73.310;2022-10-16T07:21:15;13.76;57.85
73568;SHT30;61847;54.994;73.310;2022-10-16T07:23:53;13.80;57.74
73568;SHT30;61847;54.994;73.310;2022-10-16T07:26:20;13.80;57.75
73568;SHT30;61847;54.994;73.310;2022-10-16T07:28:48;13.84;57.98
73568;SHT30;61847;54.994;73.310;2022-10-16T07:31:17;13.90;57.99
73568;SHT30;61847;54.994;73.310;2022-10-16T07:33:44;13.98;57.85
73568;SHT30;61847;54.994;73.310;2022-10-16T07:36:12;13.97;57.95
73568;SHT30;61847;54.994;73.310;2022-10-16T07:38:38;13.97;58.30
73568;SHT30;61847;54.994;73.310;2022-10-16T07:41:07;13.91;58.72
73568;SHT30;61847;54.994;73.310;2022-10-16T07:43:33;13.91;58.45
73568;SHT30;61847;54.994;73.310;2022-10-16T07:46:00;13.84;58.50
73568;SHT30;61847;54.994;73.310;2022-10-16T07:48:28;13.89;58.70
73568;SHT30;61847;54.994;73.310;2022-10-16T07:51:01;13.90;58.46
73568;SHT30;61847;54.994;73.310;2022-10-16T07:53:28;13.96;58.27
73568;SHT30;61847;54.994;73.310;2022-10-16T07:56:02;14.04;59.02
73568;SHT30;61847;54.994;73.310;2022-10-16T07:58:29;13.98;58.24
73568;SHT30;61847;54.994;73.310;2022-10-16T08:01:04;13.97;58.46
73568;SHT30;61847;54.994;73.310;2022-10-16T08:03:31;14.01;58.44
73568;SHT30;61847;54.994;73.310;2022-10-16T08:05:58;14.14;57.72
73568;SHT30;61847;54.994;73.310;2022-10-16T08:08:25;14.27;57.44
73568;SHT30;61847;54.994;73.310;2022-10-16T08:10:51;14.31;57.28
73568;SHT30;61847;54.994;73.310;2022-10-16T08:13:18;14.29;57.58
73568;SHT30;61847;54.994;73.310;2022-10-16T08:15:45;14.44;57.22
73568;SHT30;61847;54.994;73.310;2022-10-16T08:18:13;14.44;57.01
73568;SHT30;61847;54.994;73.310;2022-10-16T08:20:40;14.51;57.04
73568;SHT30;61847;54.994;73.310;2022-10-16T08:23:07;14.61;56.72
73568;SHT30;61847;54.994;73.310;2022-10-16T08:25:35;14.65;56.69
73568;SHT30;61847;54.994;73.310;2022-10-16T08:28:07;14.68;56.68
73568;SHT30;61847;54.994;73.310;2022-10-16T08:30:34;14.66;56.98
73568;SHT30;61847;54.994;73.310;2022-10-16T08:33:01;14.62;57.08
73568;SHT30;61847;54.994;73.310;2022-10-16T08:35:28;14.68;57.19
73568;SHT30;61847;54.994;73.310;2022-10-16T08:37:54;14.73;57.45
73568;SHT30;61847;54.994;73.310;2022-10-16T08:40:31;14.77;57.49
73568;SHT30;61847;54.994;73.310;2022-10-16T08:48:32;14.59;58.55
73568;SHT30;61847;54.994;73.310;2022-10-16T08:51:02;14.58;58.45
73568;SHT30;61847;54.994;73.310;2022-10-16T08:53:43;14.35;58.97
73568;SHT30;61847;54.994;73.310;2022-10-16T08:56:10;14.29;59.13
73568;SHT30;61847;54.994;73.310;2022-10-16T08:58:36;14.29;59.04
73568;SHT30;61847;54.994;73.310;2022-10-16T09:01:13;14.29;59.43
73568;SHT30;61847;54.994;73.310;2022-10-16T09:16:56;14.31;59.86
73568;SHT30;61847;54.994;73.310;2022-10-16T09:19:37;14.38;59.79
73568;SHT30;61847;54.994;73.310;2022-10-16T09:22:13;14.41;59.68
73568;SHT30;61847;54.994;73.310;2022-10-16T09:24:40;14.29;59.94
73568;SHT30;61847;54.994;73.310;2022-10-16T09:27:11;14.28;59.94
73568;SHT30;61847;54.994;73.310;2022-10-16T09:29:39;14.28;59.78
73568;SHT30;61847;54.994;73.310;2022-10-16T09:32:21;14.18;60.13
73568;SHT30;61847;54.994;73.310;2022-10-16T09:34:53;14.16;60.29
73568;SHT30;61847;54.994;73.310;2022-10-16T09:37:22;14.14;60.41
73568;SHT30;61847;54.994;73.310;2022-10-16T09:39:53;14.04;60.63
73568;SHT30;61847;54.994;73.310;2022-10-16T09:42:46;13.96;61.04
73568;SHT30;61847;54.994;73.310;2022-10-16T09:45:23;13.94;61.17
73568;SHT30;61847;54.994;73.310;2022-10-16T09:47:49;13.91;61.34
73568;SHT30;61847;54.994;73.310;2022-10-16T09:50:23;13.80;61.60
73568;SHT30;61847;54.994;73.310;2022-10-16T09:52:50;13.73;61.71
73568;SHT30;61847;54.994;73.310;2022-10-16T09:55:17;13.74;61.94
73568;SHT30;61847;54.994;73.310;2022-10-16T09:57:51;13.69;62.25
73568;SHT30;61847;54.994;73.310;2022-10-16T10:00:18;13.69;62.44
73568;SHT30;61847;54.994;73.310;2022-10-16T10:02:45;13.77;62.44
73568;SHT30;61847;54.994;73.310;2022-10-16T10:05:25;13.89;62.75
73568;SHT30;61847;54.994;73.310;2022-10-16T10:07:56;13.89;62.80
73568;SHT30;61847;54.994;73.310;2022-10-16T10:10:26;13.94;63.86
73568;SHT30;61847;54.994;73.310;2022-10-16T10:12:54;13.91;63.74
73568;SHT30;61847;54.994;73.310;2022-10-16T10:15:21;13.89;63.78
73568;SHT30;61847;54.994;73.310;2022-10-16T10:17:52;13.81;63.89
73568;SHT30;61847;54.994;73.310;2022-10-16T10:20:35;13.70;64.31
73568;SHT30;61847;54.994;73.310;2022-10-16T10:23:24;13.66;64.32
73568;SHT30;61847;54.994;73.310;2022-10-16T10:28:55;13.66;64.55
73568;SHT30;61847;54.994;73.310;2022-10-16T10:31:54;13.65;64.60
73568;SHT30;61847;54.994;73.310;2022-10-16T10:37:23;13.43;65.70
73568;SHT30;61847;54.994;73.310;2022-10-16T10:42:48;13.38;66.56
73568;SHT30;61847;54.994;73.310;2022-10-16T10:45:22;13.32;66.74
73568;SHT30;61847;54.994;73.310;2022-10-16T10:51:08;13.26;67.01
73568;SHT30;61847;54.994;73.310;2022-10-16T11:07:02;13.34;64.81
73568;SHT30;61847;54.994;73.310;2022-10-16T11:09:45;13.32;64.72
73568;SHT30;61847;54.994;73.310;2022-10-16T11:12:20;13.32;64.77
73568;SHT30;61847;54.994;73.310;2022-10-16T11:17:40;13.23;64.90
73568;SHT30;61847;54.994;73.310;2022-10-16T11:20:19;13.08;65.47
73568;SHT30;61847;54.994;73.310;2022-10-16T11:22:54;13.02;65.18
73568;SHT30;61847;54.994;73.310;2022-10-16T11:25:30;12.93;65.41
73568;SHT30;61847;54.994;73.310;2022-10-16T11:28:17;12.98;65.19
73568;SHT30;61847;54.994;73.310;2022-10-16T11:30:50;12.93;65.48
73568;SHT30;61847;54.994;73.310;2022-10-16T11:38:38;12.72;66.73
73568;SHT30;61847;54.994;73.310;2022-10-16T11:41:35;12.59;67.21
73568;SHT30;61847;54.994;73.310;2022-10-16T11:49:32;12.53;68.13
73568;SHT30;61847;54.994;73.310;2022-10-16T11:52:19;12.37;68.91
73568;SHT30;61847;54.994;73.310;2022-10-16T11:55:04;12.36;68.92
73568;SHT30;61847;54.994;73.310;2022-10-16T11:57:49;12.33;69.05
73568;SHT30;61847;54.994;73.310;2022-10-16T12:00:31;12.29;69.16
73568;SHT30;61847;54.994;73.310;2022-10-16T12:08:18;12.28;69.26
73568;SHT30;61847;54.994;73.310;2022-10-16T12:10:47;12.26;69.52
73568;SHT30;61847;54.994;73.310;2022-10-16T12:13:37;12.18;70.44
73568;SHT30;61847;54.994;73.310;2022-10-16T12:18:44;12.14;70.45
73568;SHT30;61847;54.994;73.310;2022-10-16T12:21:30;12.14;70.61
73568;SHT30;61847;54.994;73.310;2022-10-16T12:24:03;12.11;70.81
73568;SHT30;61847;54.994;73.310;2022-10-16T12:26:38;12.06;70.57
73568;SHT30;61847;54.994;73.310;2022-10-16T12:29:23;12.15;70.42
73568;SHT30;61847;54.994;73.310;2022-10-16T12:32:00;12.22;70.26
73568;SHT30;61847;54.994;73.310;2022-10-16T12:34:32;12.16;70.16
73568;SHT30;61847;54.994;73.310;2022-10-16T12:37:20;12.19;70.25
73568;SHT30;61847;54.994;73.310;2022-10-16T12:39:48;12.14;70.09
73568;SHT30;61847;54.994;73.310;2022-10-16T12:44:54;12.11;70.01
73568;SHT30;61847;54.994;73.310;2022-10-16T12:49:56;12.12;69.80
73568;SHT30;61847;54.994;73.310;2022-10-16T12:55:00;12.22;69.82
73568;SHT30;61847;54.994;73.310;2022-10-16T13:00:03;12.22;69.77
73568;SHT30;61847;54.994;73.310;2022-10-16T13:02:48;12.24;69.57
73568;SHT30;61847;54.994;73.310;2022-10-16T13:08:18;12.22;70.05
73568;SHT30;61847;54.994;73.310;2022-10-16T13:17:51;12.16;70.12
73568;SHT30;61847;54.994;73.310;2022-10-16T13:20:36;12.16;70.30
73568;SHT30;61847;54.994;73.310;2022-10-16T13:23:30;12.18;70.53
73568;SHT30;61847;54.994;73.310;2022-10-16T13:28:58;12.22;70.44
73568;SHT30;61847;54.994;73.310;2022-10-16T13:31:25;12.19;70.30
73568;SHT30;61847;54.994;73.310;2022-10-16T13:33:54;12.25;70.20
73568;SHT30;61847;54.994;73.310;2022-10-16T13:36:24;12.28;70.29
73568;SHT30;61847;54.994;73.310;2022-10-16T13:41:27;12.25;70.46
73568;SHT30;61847;54.994;73.310;2022-10-16T13:43:54;12.19;70.65
73568;SHT30;61847;54.994;73.310;2022-10-16T13:46:24;12.11;70.71
73568;SHT30;61847;54.994;73.310;2022-10-16T13:51:24;12.14;70.26
73568;SHT30;61847;54.994;73.310;2022-10-16T13:53:50;12.15;70.14
73568;SHT30;61847;54.994;73.310;2022-10-16T13:56:20;12.09;70.41
73568;SHT30;61847;54.994;73.310;2022-10-16T14:01:29;12.06;70.11
73568;SHT30;61847;54.994;73.310;2022-10-16T14:04:08;11.99;70.26
73568;SHT30;61847;54.994;73.310;2022-10-16T14:06:36;11.99;70.37
73568;SHT30;61847;54.994;73.310;2022-10-16T14:09:24;11.95;70.53
73568;SHT30;61847;54.994;73.310;2022-10-16T14:14:20;12.02;70.06
73568;SHT30;61847;54.994;73.310;2022-10-16T14:16:48;12.02;70.10
73568;SHT30;61847;54.994;73.310;2022-10-16T14:21:46;11.98;70.30
73568;SHT30;61847;54.994;73.310;2022-10-16T14:24:14;11.97;70.25
73568;SHT30;61847;54.994;73.310;2022-10-16T14:26:50;11.92;70.22
73568;SHT30;61847;54.994;73.310;2022-10-16T14:29:20;11.94;70.05
73568;SHT30;61847;54.994;73.310;2022-10-16T14:34:30;11.88;70.10
73568;SHT30;61847;54.994;73.310;2022-10-16T14:37:01;11.81;70.26
73568;SHT30;61847;54.994;73.310;2022-10-16T14:39:33;11.75;70.38
73568;SHT30;61847;54.994;73.310;2022-10-16T14:42:04;11.70;70.47
73568;SHT30;61847;54.994;73.310;2022-10-16T14:44:34;11.66;70.70
73568;SHT30;61847;54.994;73.310;2022-10-16T14:47:14;11.66;70.74
73568;SHT30;61847;54.994;73.310;2022-10-16T14:49:42;11.64;70.80
73568;SHT30;61847;54.994;73.310;2022-10-16T14:52:11;11.63;70.96
73568;SHT30;61847;54.994;73.310;2022-10-16T14:54:37;11.60;71.21
73568;SHT30;61847;54.994;73.310;2022-10-16T14:57:26;11.60;71.46
73568;SHT30;61847;54.994;73.310;2022-10-16T15:00:17;11.68;71.06
73568;SHT30;61847;54.994;73.310;2022-10-16T15:02:53;11.64;71.20
73568;SHT30;61847;54.994;73.310;2022-10-16T15:05:29;11.57;71.57
73568;SHT30;61847;54.994;73.310;2022-10-16T15:07:58;11.54;71.72
73568;SHT30;61847;54.994;73.310;2022-10-16T15:10:27;11.51;71.65
73568;SHT30;61847;54.994;73.310;2022-10-16T15:12:55;11.47;71.72
73568;SHT30;61847;54.994;73.310;2022-10-16T15:17:55;11.36;71.96
73568;SHT30;61847;54.994;73.310;2022-10-16T15:20:27;11.27;72.10
73568;SHT30;61847;54.994;73.310;2022-10-16T15:22:54;11.23;71.90
73568;SHT30;61847;54.994;73.310;2022-10-16T15:28:21;11.20;71.55
73568;SHT30;61847;54.994;73.310;2022-10-16T15:30:53;11.19;71.35
73568;SHT30;61847;54.994;73.310;2022-10-16T15:33:25;11.16;71.19
73568;SHT30;61847;54.994;73.310;2022-10-16T15:35:54;11.11;71.31
73568;SHT30;61847;54.994;73.310;2022-10-16T15:38:22;11.08;71.24
73568;SHT30;61847;54.994;73.310;2022-10-16T15:40:49;11.01;71.33
73568;SHT30;61847;54.994;73.310;2022-10-16T15:43:21;10.95;71.24
73568;SHT30;61847;54.994;73.310;2022-10-16T15:46:06;10.93;71.20
73568;SHT30;61847;54.994;73.310;2022-10-16T15:48:33;10.99;70.89
73568;SHT30;61847;54.994;73.310;2022-10-16T15:51:06;10.92;71.07
73568;SHT30;61847;54.994;73.310;2022-10-16T15:53:33;10.91;70.88
73568;SHT30;61847;54.994;73.310;2022-10-16T15:56:07;10.93;70.84
73568;SHT30;61847;54.994;73.310;2022-10-16T15:58:33;10.95;70.62
73568;SHT30;61847;54.994;73.310;2022-10-16T16:01:01;10.85;70.69
73568;SHT30;61847;54.994;73.310;2022-10-16T16:03:28;10.72;71.29
73568;SHT30;61847;54.994;73.310;2022-10-16T16:05:55;10.76;71.10
73568;SHT30;61847;54.994;73.310;2022-10-16T16:08:21;10.76;70.78
73568;SHT30;61847;54.994;73.310;2022-10-16T16:11:00;10.82;70.57
73568;SHT30;61847;54.994;73.310;2022-10-16T16:13:27;10.84;70.57
73568;SHT30;61847;54.994;73.310;2022-10-16T16:15:54;10.89;70.51
73568;SHT30;61847;54.994;73.310;2022-10-16T16:18:26;10.88;70.51
73568;SHT30;61847;54.994;73.310;2022-10-16T16:20:52;10.92;70.53
73568;SHT30;61847;54.994;73.310;2022-10-16T16:23:19;10.93;70.54
73568;SHT30;61847;54.994;73.310;2022-10-16T16:26:13;10.89;71.01
73568;SHT30;61847;54.994;73.310;2022-10-16T16:28:41;10.92;71.11
73568;SHT30;61847;54.994;73.310;2022-10-16T16:31:08;10.93;70.76
73568;SHT30;61847;54.994;73.310;2022-10-16T16:33:35;11.01;70.62
73568;SHT30;61847;54.994;73.310;2022-10-16T16:36:05;11.02;70.49
73568;SHT30;61847;54.994;73.310;2022-10-16T16:38:32;11.05;70.53
73568;SHT30;61847;54.994;73.310;2022-10-16T16:40:59;11.06;70.49
73568;SHT30;61847;54.994;73.310;2022-10-16T16:43:35;11.03;70.58
73568;SHT30;61847;54.994;73.310;2022-10-16T16:46:01;11.09;70.30
73568;SHT30;61847;54.994;73.310;2022-10-16T16:48:27;11.16;69.93
73568;SHT30;61847;54.994;73.310;2022-10-16T16:50:54;11.16;70.16
73568;SHT30;61847;54.994;73.310;2022-10-16T16:53:20;11.16;70.01
73568;SHT30;61847;54.994;73.310;2022-10-16T16:55:47;11.15;70.10
73568;SHT30;61847;54.994;73.310;2022-10-16T16:58:13;11.16;69.90
73568;SHT30;61847;54.994;73.310;2022-10-16T17:00:46;11.13;70.12
73568;SHT30;61847;54.994;73.310;2022-10-16T17:03:12;11.06;70.78
73568;SHT30;61847;54.994;73.310;2022-10-16T17:05:39;11.05;70.37
73568;SHT30;61847;54.994;73.310;2022-10-16T17:08:08;11.03;70.44
73568;SHT30;61847;54.994;73.310;2022-10-16T17:10:42;11.03;70.42
73568;SHT30;61847;54.994;73.310;2022-10-16T17:13:09;11.11;70.03
73568;SHT30;61847;54.994;73.310;2022-10-16T17:15:49;11.08;70.05
73568;SHT30;61847;54.994;73.310;2022-10-16T17:18:16;11.08;70.30
73568;SHT30;61847;54.994;73.310;2022-10-16T17:20:43;11.08;70.09
73568;SHT30;61847;54.994;73.310;2022-10-16T17:23:10;11.05;70.14
73568;SHT30;61847;54.994;73.310;2022-10-16T17:25:40;11.12;69.83
73568;SHT30;61847;54.994;73.310;2022-10-16T17:28:08;11.15;69.64
73568;SHT30;61847;54.994;73.310;2022-10-16T17:30:38;11.13;69.69
73568;SHT30;61847;54.994;73.310;2022-10-16T17:33:04;11.08;70.03
73568;SHT30;61847;54.994;73.310;2022-10-16T17:35:43;10.93;71.24
73568;SHT30;61847;54.994;73.310;2022-10-16T17:38:10;10.84;71.73
73568;SHT30;61847;54.994;73.310;2022-10-16T17:40:42;10.74;72.89
73568;SHT30;61847;54.994;73.310;2022-10-16T17:43:08;10.67;73.09
73568;SHT30;61847;54.994;73.310;2022-10-16T17:45:45;10.63;73.44